Time;durP1;ratioP1;P1;durP2;ratioP2;P2;SDS_P1;SDS_P2;PMS_P1;PMS_P2;Temp;Humidity;BMP_temperature;BMP_pressure;BME280_temperature;BME280_humidity;BME280_pressure;Samples;Min_cycle;Max_cycle;Signal;HPM_P1;HPM_P2
2024/04/11 00:00:47;;;;;;;12.10;5.60;;;;;;;15.10;64.57;100097.63;5430405;26;20035;-70
2024/04/11 00:03:16;;;;;;;9.93;5.80;;;;;;;15.02;64.36;100087.28;5433604;26;20006;-71
2024/04/11 00:05:43;;;;;;;14.93;5.78;;;;;;;15.03;64.66;100084.66;5464353;26;20013;-72
2024/04/11 00:08:09;;;;;;;11.40;5.47;;;;;;;14.95;64.65;100056.91;5465045;26;20015;-71
2024/04/11 00:10:35;;;;;;;9.20;5.80;;;;;;;15.12;64.64;100093.19;5408042;26;20347;-70
2024/04/11 00:13:01;;;;;;;9.63;5.75;;;;;;;15.17;64.65;100096.56;5409395;26;19994;-72
2024/04/11 00:15:31;;;;;;;11.77;6.10;;;;;;;15.12;64.50;100083.59;5439575;26;19998;-70
2024/04/11 00:17:57;;;;;;;9.15;5.90;;;;;;;15.09;64.46;100088.88;5379283;26;20002;-72
2024/04/11 00:20:23;;;;;;;10.90;6.00;;;;;;;15.15;64.54;100088.75;5373381;26;20078;-71
2024/04/11 00:22:50;;;;;;;11.35;6.32;;;;;;;15.01;64.45;100061.97;5437383;26;20011;-71
2024/04/11 00:25:17;;;;;;;10.85;5.82;;;;;;;15.15;64.62;100082.63;5410113;26;20006;-72
2024/04/11 00:27:44;;;;;;;16.38;6.40;;;;;;;15.09;64.54;100078.41;5468774;26;20085;-72
2024/04/11 00:30:10;;;;;;;11.23;5.85;;;;;;;15.09;64.56;100077.56;5411681;26;20018;-71
2024/04/11 00:32:36;;;;;;;13.32;6.38;;;;;;;15.01;64.63;100070.72;5471919;26;20002;-71
2024/04/11 00:35:04;;;;;;;15.30;6.53;;;;;;;15.03;64.35;100068.06;5468584;26;20637;-71
2024/04/11 00:37:31;;;;;;;11.13;6.78;;;;;;;14.80;64.28;100035.38;5440673;26;20025;-71
2024/04/11 00:39:58;;;;;;;9.68;6.25;;;;;;;15.06;64.39;100079.34;5441236;26;20015;-72
2024/04/11 00:42:24;;;;;;;12.82;6.75;;;;;;;15.04;64.62;100068.03;5463915;26;19998;-72
2024/04/11 00:44:52;;;;;;;11.20;6.10;;;;;;;15.03;64.44;100070.69;5468909;26;20010;-72
2024/04/11 00:47:20;;;;;;;12.73;6.38;;;;;;;14.87;64.40;100041.38;5491407;26;20476;-71
2024/04/11 00:49:47;;;;;;;15.38;7.60;;;;;;;14.84;64.42;100038.81;5428293;26;20010;-71
2024/04/11 00:52:13;;;;;;;16.33;7.00;;;;;;;15.05;64.51;100077.63;5431127;26;20012;-71
2024/04/11 00:54:40;;;;;;;14.18;7.00;;;;;;;14.92;64.60;100055.19;5439340;26;20021;-70
2024/04/11 00:57:08;;;;;;;13.23;6.80;;;;;;;14.83;64.76;100042.31;5437674;26;20418;-71
2024/04/11 00:59:38;;;;;;;10.07;5.90;;;;;;;14.84;64.36;100038.81;5432134;26;20014;-71
2024/04/11 01:02:08;;;;;;;15.57;6.97;;;;;;;15.02;64.53;100072.44;5431047;26;20346;-71
2024/04/11 01:04:35;;;;;;;12.10;7.72;;;;;;;14.97;64.52;100076.06;5441549;26;20009;-72
2024/04/11 01:07:07;;;;;;;12.18;6.97;;;;;;;14.87;64.70;100068.41;5438688;26;20002;-72
2024/04/11 01:09:46;;;;;;;14.20;6.93;;;;;;;14.89;64.64;100086.72;5462834;26;20021;-71
2024/04/11 01:12:14;;;;;;;17.48;7.47;;;;;;;14.81;64.81;100083.41;5488028;26;20009;-70
2024/04/11 01:14:44;;;;;;;12.25;6.80;;;;;;;14.57;64.94;100041.09;5458353;26;21363;-71
2024/04/11 01:17:13;;;;;;;11.65;6.63;;;;;;;14.56;64.86;100058.59;5408137;26;20011;-71
2024/04/11 01:19:49;;;;;;;17.67;7.38;;;;;;;14.40;64.92;100031.88;5463017;26;20017;-71
2024/04/11 01:22:18;;;;;;;15.98;7.35;;;;;;;14.66;65.18;100074.97;5472247;26;20002;-70
2024/04/11 01:24:44;;;;;;;12.23;7.53;;;;;;;14.48;65.12;100043.91;5437848;26;20075;-72
2024/04/11 01:27:13;;;;;;;14.25;7.20;;;;;;;14.46;65.24;100043.97;5407305;26;20010;-70
2024/04/11 01:29:39;;;;;;;10.75;6.88;;;;;;;14.35;65.12;100025.84;5457955;26;20022;-72
2024/04/11 01:32:07;;;;;;;24.40;9.25;;;;;;;14.59;65.40;100066.34;5440305;26;19998;-70
2024/04/11 01:34:35;;;;;;;11.32;7.20;;;;;;;14.58;65.56;100064.63;5405954;26;20514;-70
2024/04/11 01:37:01;;;;;;;13.77;7.45;;;;;;;14.44;65.85;100038.75;5422858;26;20010;-70
2024/04/11 01:39:27;;;;;;;17.30;6.93;;;;;;;14.46;65.67;100043.97;5471151;26;19998;-71
2024/04/11 01:41:53;;;;;;;15.48;7.43;;;;;;;14.49;65.61;100043.91;5468197;26;22364;-70
2024/04/11 01:44:20;;;;;;;13.07;7.38;;;;;;;14.45;65.74;100045.69;5438030;26;20016;-73
2024/04/11 01:46:48;;;;;;;13.88;7.53;;;;;;;14.43;65.74;100036.16;5422931;26;20035;-72
2024/04/11 01:49:17;;;;;;;13.30;7.73;;;;;;;14.50;65.93;100048.25;5411101;26;20037;-71
2024/04/11 01:51:44;;;;;;;12.60;7.15;;;;;;;14.49;65.70;100046.50;5464235;26;20279;-73
2024/04/11 01:54:11;;;;;;;11.68;7.50;;;;;;;14.35;66.04;100022.34;5438026;26;20103;-71
2024/04/11 01:56:37;;;;;;;18.55;7.78;;;;;;;14.35;66.01;100024.97;5467944;26;20074;-72
2024/04/11 01:59:04;;;;;;;17.42;8.38;;;;;;;14.41;66.06;100044.06;5461355;26;19994;-71
2024/04/11 02:01:34;;;;;;;16.65;8.40;;;;;;;14.32;66.49;100028.53;5468988;26;20026;-71
2024/04/11 02:04:05;;;;;;;17.30;7.95;;;;;;;14.39;66.02;100040.59;5466727;26;20008;-70
2024/04/11 02:06:39;;;;;;;17.30;8.20;;;;;;;14.28;66.44;100024.25;5464743;26;19998;-71
2024/04/11 02:09:09;;;;;;;12.70;8.20;;;;;;;14.08;66.25;99988.88;5470002;26;20457;-72
2024/04/11 02:11:42;;;;;;;12.57;7.93;;;;;;;14.23;66.48;100024.34;5489735;26;20074;-72
2024/04/11 02:14:11;;;;;;;13.90;8.82;;;;;;;14.33;66.03;100025.03;5470571;26;20003;-72
2024/04/11 02:16:39;;;;;;;13.88;8.63;;;;;;;14.29;66.10;100023.34;5468127;26;20023;-71
2024/04/11 02:19:06;;;;;;;12.85;8.35;;;;;;;14.16;66.53;100009.66;5471507;26;20017;-71
2024/04/11 02:21:43;;;;;;;19.00;8.68;;;;;;;14.27;66.43;100033.88;5465381;26;19998;-70
2024/04/11 02:24:22;;;;;;;14.70;7.72;;;;;;;14.16;66.61;100014.88;5430933;26;20465;-70
2024/04/11 02:26:48;;;;;;;14.38;8.52;;;;;;;14.24;66.64;100027.81;5463679;26;20002;-69
2024/04/11 02:29:17;;;;;;;12.77;8.50;;;;;;;14.20;66.78;100023.56;5437336;26;20044;-69
2024/04/11 02:31:44;;;;;;;14.15;8.20;;;;;;;14.00;66.66;99996.91;5457426;26;20371;-68
2024/04/11 02:34:10;;;;;;;20.35;8.50;;;;;;;14.09;66.65;100019.41;5467210;26;20533;-70
2024/04/11 02:36:36;;;;;;;19.02;8.65;;;;;;;14.10;66.93;100022.88;5429782;26;20002;-71
2024/04/11 02:39:12;;;;;;;13.38;8.13;;;;;;;14.00;66.53;100009.97;5465560;26;20748;-71
2024/04/11 02:41:39;;;;;;;18.95;7.97;;;;;;;14.00;66.83;100009.97;5440956;26;20106;-70
2024/04/11 02:44:06;;;;;;;16.92;9.05;;;;;;;14.05;66.79;100009.88;5411043;26;20376;-69
2024/04/11 02:46:32;;;;;;;16.95;8.75;;;;;;;14.00;66.71;100007.34;5400965;26;20017;-71
2024/04/11 02:48:58;;;;;;;15.13;7.88;;;;;;;14.05;66.69;100007.25;5435453;26;20035;-70
2024/04/11 02:51:25;;;;;;;17.08;8.98;;;;;;;13.94;66.95;99985.69;5436195;26;20123;-70
2024/04/11 02:53:53;;;;;;;14.32;7.45;;;;;;;13.92;66.95;99979.63;5468004;26;20015;-71
2024/04/11 02:56:23;;;;;;;19.30;8.85;;;;;;;14.06;66.82;100006.38;5408839;26;20087;-71
2024/04/11 02:58:49;;;;;;;14.00;8.13;;;;;;;14.09;66.82;100006.31;5465992;26;20073;-70
2024/04/11 03:01:16;;;;;;;21.17;8.93;;;;;;;14.10;66.82;100012.41;5402203;26;20003;-69
2024/04/11 03:03:43;;;;;;;20.02;8.68;;;;;;;13.86;66.89;99967.53;5406979;26;20026;-70
2024/04/11 03:06:21;;;;;;;17.17;8.75;;;;;;;13.66;66.77;99926.97;5427912;26;20003;-70
2024/04/11 03:08:56;;;;;;;17.63;8.50;;;;;;;14.06;66.90;99990.66;5465155;26;19994;-71
2024/04/11 03:11:26;;;;;;;18.55;9.68;;;;;;;14.12;66.72;99987.94;5421134;26;20006;-69
2024/04/11 03:13:57;;;;;;;15.35;9.07;;;;;;;14.14;66.85;99980.03;5456706;26;19998;-70
2024/04/11 03:16:30;;;;;;;12.75;8.30;;;;;;;14.15;66.69;99966.94;5459123;26;20021;-69
2024/04/11 03:18:57;;;;;;;14.07;8.63;;;;;;;14.35;66.54;99990.94;5462756;26;20003;-69
2024/04/11 03:21:24;;;;;;;16.85;8.48;;;;;;;14.40;66.41;99984.75;5404425;26;20127;-68
2024/04/11 03:23:50;;;;;;;17.67;8.02;;;;;;;14.43;66.46;99976.81;5464161;26;20046;-69
2024/04/11 03:26:17;;;;;;;14.65;7.82;;;;;;;14.57;66.54;99991.34;5462632;26;20011;-69
2024/04/11 03:28:43;;;;;;;13.00;8.60;;;;;;;14.65;66.06;99983.31;5466647;26;20011;-69
2024/04/11 03:31:13;;;;;;;17.90;8.10;;;;;;;14.67;65.97;99971.06;5463720;26;20027;-70
2024/04/11 03:33:39;;;;;;;19.25;8.23;;;;;;;14.64;65.71;99940.56;5436054;26;20005;-70
2024/04/11 03:36:09;;;;;;;15.75;8.32;;;;;;;14.97;65.64;99985.22;5431186;26;20010;-69
2024/04/11 03:38:37;;;;;;;16.00;8.07;;;;;;;14.79;65.41;99917.56;5463130;26;20002;-69
2024/04/11 03:41:08;;;;;;;20.45;8.10;;;;;;;15.25;64.93;99966.19;5462806;26;21259;-70
2024/04/11 03:43:34;;;;;;;19.83;11.02;;;;;;;15.16;64.89;99916.63;5462957;26;20094;-70
2024/04/11 03:46:08;;;;;;;16.20;8.55;;;;;;;15.60;64.24;99955.69;5403726;26;20010;-70
2024/04/11 03:48:36;;;;;;;15.02;7.38;;;;;;;15.76;63.99;99959.59;5464998;26;20017;-70
2024/04/11 03:51:17;;;;;;;14.88;7.55;;;;;;;16.03;63.32;99969.38;5462073;26;20013;-69
2024/04/11 03:53:44;;;;;;;21.92;8.13;;;;;;;16.19;62.70;99969.81;5463146;26;20104;-70
2024/04/11 03:56:14;;;;;;;15.88;8.00;;;;;;;16.30;62.51;99964.22;5492778;26;20341;-69
2024/04/11 03:58:41;;;;;;;15.60;7.65;;;;;;;16.42;61.68;99974.38;5434009;26;20002;-71
2024/04/11 04:01:18;;;;;;;20.73;8.35;;;;;;;16.37;61.49;99950.03;5463693;26;20016;-68
2024/04/11 04:03:52;;;;;;;24.70;8.18;;;;;;;16.39;60.87;99945.59;5465653;26;19998;-69
2024/04/11 04:06:19;;;;;;;24.95;8.30;;;;;;;16.39;60.31;99942.97;5450779;26;19998;-69
2024/04/11 04:08:51;;;;;;;18.85;7.63;;;;;;;16.25;59.99;99927.63;5434380;26;20046;-70
2024/04/11 04:11:22;;;;;;;12.20;7.13;;;;;;;16.46;59.74;99954.97;5460899;26;20145;-69
2024/04/11 04:13:50;;;;;;;15.13;7.40;;;;;;;16.48;59.65;99963.66;5432671;26;20110;-67
2024/04/11 04:16:17;;;;;;;21.77;7.95;;;;;;;16.41;59.42;99954.28;5455555;26;20013;-67
2024/04/11 04:18:50;;;;;;;15.27;7.63;;;;;;;16.51;58.81;99970.59;5406466;26;20028;-67
2024/04/11 04:21:20;;;;;;;13.27;6.90;;;;;;;16.41;58.88;99954.28;5487254;26;20004;-68
2024/04/11 04:23:55;;;;;;;17.88;7.85;;;;;;;16.48;58.43;99955.78;5402372;26;20021;-69
2024/04/11 04:26:26;;;;;;;15.32;7.10;;;;;;;16.50;58.60;99946.09;5448340;26;20002;-72
2024/04/11 04:28:56;;;;;;;21.88;7.45;;;;;;;16.50;57.74;99938.22;5484966;26;20106;-71
2024/04/11 04:31:25;;;;;;;24.67;7.18;;;;;;;16.70;57.76;99941.97;5465241;26;20020;-69
2024/04/11 04:33:53;;;;;;;15.75;6.70;;;;;;;17.05;57.48;99982.06;5458376;26;20010;-69
2024/04/11 04:36:24;;;;;;;10.27;6.80;;;;;;;17.23;56.59;99963.97;5456514;26;20569;-71
2024/04/11 04:38:51;;;;;;;16.27;6.88;;;;;;;17.36;56.38;99952.09;5427384;26;20025;-69
2024/04/11 04:41:18;;;;;;;21.98;7.68;;;;;;;17.52;56.24;99931.38;5402537;26;20002;-70
2024/04/11 04:43:47;;;;;;;19.70;7.18;;;;;;;17.98;55.37;99965.75;5398659;26;20018;-70
2024/04/11 04:46:15;;;;;;;19.63;7.38;;;;;;;18.06;54.58;99945.22;5402486;26;20006;-69
2024/04/11 04:48:41;;;;;;;15.93;6.85;;;;;;;18.15;54.25;99941.41;5404259;26;19998;-69
2024/04/11 04:51:11;;;;;;;19.08;7.30;;;;;;;18.18;53.65;99928.13;5462250;26;20017;-69
2024/04/11 04:53:38;;;;;;;14.48;7.60;;;;;;;18.55;53.44;99996.97;5466506;26;20484;-69
2024/04/11 04:56:09;;;;;;;11.77;6.18;;;;;;;18.58;52.57;99973.13;5459976;26;20010;-69
2024/04/11 04:58:42;;;;;;;16.40;6.35;;;;;;;18.76;52.14;99979.41;5440890;26;20002;-69
2024/04/11 05:01:09;;;;;;;16.52;6.60;;;;;;;18.64;51.43;99943.03;5466974;26;20030;-69
2024/04/11 05:03:35;;;;;;;19.17;6.82;;;;;;;18.92;51.25;99987.56;5436741;26;20012;-69
2024/04/11 05:06:04;;;;;;;17.92;6.82;;;;;;;19.06;50.52;99976.50;5440820;26;20142;-70
2024/04/11 05:08:33;;;;;;;14.45;6.35;;;;;;;19.24;49.97;99966.09;5439807;26;20376;-69
2024/04/11 05:11:10;;;;;;;10.98;6.40;;;;;;;19.57;49.47;99979.63;5467930;26;20066;-70
2024/04/11 05:13:44;;;;;;;13.63;6.55;;;;;;;19.98;48.47;99964.69;5434231;26;19999;-70
2024/04/11 05:16:12;;;;;;;13.20;6.45;;;;;;;20.46;47.98;99939.53;5433182;26;19998;-71
2024/04/11 05:18:40;;;;;;;14.55;5.80;;;;;;;21.30;46.96;99969.00;5436347;26;20060;-67
2024/04/11 05:21:12;;;;;;;13.35;5.95;;;;;;;21.85;45.88;99932.69;5436913;26;20010;-70
2024/04/11 05:23:42;;;;;;;13.98;5.70;;;;;;;23.19;44.12;99966.72;5492690;26;20384;-70
2024/04/11 05:26:14;;;;;;;17.73;6.55;;;;;;;24.04;42.53;99951.03;5468584;26;20055;-71
2024/04/11 05:28:44;;;;;;;18.60;6.00;;;;;;;24.57;40.43;99963.66;5410318;26;20083;-70
2024/04/11 05:31:17;;;;;;;15.35;6.00;;;;;;;24.89;39.96;99941.25;5460587;26;20020;-71
2024/04/11 05:33:47;;;;;;;12.70;6.50;;;;;;;25.00;38.72;99960.00;5435762;26;20011;-69
2024/04/11 05:36:17;;;;;;;20.35;6.68;;;;;;;24.64;38.28;99956.13;5463729;26;19998;-70
2024/04/11 05:38:46;;;;;;;14.27;6.00;;;;;;;24.28;38.31;99970.81;5433773;26;20753;-70
2024/04/11 05:41:14;;;;;;;13.63;6.63;;;;;;;23.96;38.51;99961.25;5469554;26;20634;-69
2024/04/11 05:43:47;;;;;;;14.20;6.75;;;;;;;24.08;38.42;99970.28;5465344;26;20464;-72
2024/04/11 05:46:14;;;;;;;15.82;6.13;;;;;;;24.04;38.02;99940.41;5434856;26;19998;-71
2024/04/11 05:48:41;;;;;;;13.90;5.78;;;;;;;24.31;37.57;99960.88;5464264;26;20002;-70
2024/04/11 05:51:07;;;;;;;13.77;5.88;;;;;;;24.69;36.70;99942.50;5434403;26;20005;-70
2024/04/11 05:53:36;;;;;;;12.20;6.15;;;;;;;25.07;36.39;99950.66;5463517;26;20003;-70
2024/04/11 05:56:06;;;;;;;18.17;6.15;;;;;;;25.05;35.99;99972.97;5455221;26;20092;-70
2024/04/11 05:58:40;;;;;;;15.48;6.32;;;;;;;24.87;35.87;99975.06;5465823;26;19998;-69
2024/04/11 06:01:09;;;;;;;15.15;6.00;;;;;;;24.89;36.06;99950.06;5464572;26;22064;-70
2024/04/11 06:03:40;;;;;;;15.48;6.03;;;;;;;25.34;35.47;99949.72;5461242;26;20478;-69
2024/04/11 06:06:13;;;;;;;13.90;5.63;;;;;;;25.43;35.37;99972.25;5453159;26;20017;-69
2024/04/11 06:08:41;;;;;;;16.05;6.40;;;;;;;25.35;34.88;99971.88;5425286;26;20034;-71
2024/04/11 06:11:10;;;;;;;11.50;6.10;;;;;;;25.13;34.80;99986.63;5403601;26;20006;-70
2024/04/11 06:13:37;;;;;;;12.23;6.00;;;;;;;25.09;34.77;99980.69;5418621;26;20013;-71
2024/04/11 06:16:04;;;;;;;13.90;6.40;;;;;;;25.05;34.93;99965.88;5406093;26;20026;-71
2024/04/11 06:18:36;;;;;;;18.67;6.18;;;;;;;25.61;34.64;99977.25;5436499;26;20025;-69
2024/04/11 06:21:06;;;;;;;15.63;6.03;;;;;;;26.24;34.29;99988.00;5463591;26;20070;-71
2024/04/11 06:23:33;;;;;;;18.85;6.28;;;;;;;26.42;33.52;99964.47;5428741;26;20009;-70
2024/04/11 06:25:59;;;;;;;12.30;6.00;;;;;;;26.61;33.47;99966.63;5461035;26;19998;-70
2024/04/11 06:28:25;;;;;;;13.98;5.43;;;;;;;26.58;32.58;99969.56;5461699;26;19998;-70
2024/04/11 06:30:51;;;;;;;17.00;6.22;;;;;;;26.47;32.48;99983.69;5455230;26;20039;-70
2024/04/11 06:33:18;;;;;;;10.60;5.65;;;;;;;26.11;32.87;99964.84;5466510;26;20006;-70
2024/04/11 06:35:51;;;;;;;10.35;5.50;;;;;;;26.45;32.91;99969.59;5460027;26;20033;-69
2024/04/11 06:38:23;;;;;;;14.93;5.45;;;;;;;27.34;32.12;99959.41;5486146;26;20009;-69
2024/04/11 06:40:52;;;;;;;10.88;5.50;;;;;;;28.25;31.48;99962.19;5424710;26;20464;-70
2024/04/11 06:43:20;;;;;;;12.02;5.72;;;;;;;29.09;30.26;99971.44;5432933;26;20002;-69
2024/04/11 06:45:51;;;;;;;8.77;4.88;;;;;;;29.44;29.60;99929.25;5393327;26;20007;-70
2024/04/11 06:48:20;;;;;;;12.73;5.13;;;;;;;30.74;29.17;99949.16;5484662;26;20070;-69
2024/04/11 06:50:50;;;;;;;10.20;5.03;;;;;;;31.86;27.20;99950.38;5395383;26;20083;-70
2024/04/11 06:53:17;;;;;;;13.35;5.07;;;;;;;32.63;26.34;99927.72;5463666;26;20467;-69
2024/04/11 06:55:46;;;;;;;11.52;5.80;;;;;;;32.65;25.38;99960.72;5431537;26;20039;-70
2024/04/11 06:58:20;;;;;;;9.75;5.05;;;;;;;32.54;24.72;99969.88;5464233;26;20010;-70
2024/04/11 07:00:58;;;;;;;8.70;5.05;;;;;;;33.14;24.88;99971.94;5463524;26;19994;-69
2024/04/11 07:03:26;;;;;;;11.85;6.68;;;;;;;34.01;24.38;99978.41;5421395;26;20145;-71
2024/04/11 07:06:00;;;;;;;9.57;4.75;;;;;;;35.40;22.82;99940.94;5466526;26;19998;-67
2024/04/11 07:08:31;;;;;;;14.27;5.10;;;;;;;37.19;20.90;99975.56;5465032;26;20002;-68
2024/04/11 07:11:12;;;;;;;12.50;5.78;;;;;;;38.23;21.26;99980.19;5450774;26;19999;-69
2024/04/11 07:13:39;;;;;;;11.15;4.82;;;;;;;39.10;19.83;99968.56;5465899;26;19998;-70
2024/04/11 07:16:07;;;;;;;14.10;4.32;;;;;;;39.17;19.16;99974.91;5455756;26;20089;-69
2024/04/11 07:18:44;;;;;;;9.27;4.47;;;;;;;38.95;18.12;99947.72;5451795;26;19998;-70
2024/04/11 07:21:15;;;;;;;12.63;5.15;;;;;;;39.52;18.79;99976.81;5464230;26;19998;-68
2024/04/11 07:23:42;;;;;;;9.85;4.40;;;;;;;39.81;17.85;99997.56;5458190;26;20521;-69
2024/04/11 07:26:11;;;;;;;15.75;6.20;;;;;;;39.62;17.95;99969.97;5429186;26;20149;-69
2024/04/11 07:28:45;;;;;;;11.88;4.95;;;;;;;39.48;16.97;99998.16;5396367;26;20013;-71
2024/04/11 07:31:14;;;;;;;11.88;4.25;;;;;;;39.37;17.47;99998.72;5447808;26;20026;-70
2024/04/11 07:33:42;;;;;;;9.73;4.60;;;;;;;39.97;16.57;99990.06;5435443;26;20408;-70
2024/04/11 07:36:09;;;;;;;9.35;4.03;;;;;;;40.69;16.69;99976.94;5447520;26;20085;-70
2024/04/11 07:38:37;;;;;;;9.63;4.50;;;;;;;41.79;15.52;99978.31;5455803;26;19998;-69
2024/04/11 07:41:23;;;;;;;13.82;4.53;;;;;;;42.89;14.31;99992.06;5461928;26;20015;-70
2024/04/11 07:43:51;;;;;;;12.15;4.38;;;;;;;43.31;14.52;99967.72;5461090;26;20010;-69
2024/04/11 07:46:28;;;;;;;12.60;4.07;;;;;;;44.01;13.65;99998.56;5463045;26;20349;-69
2024/04/11 07:48:56;;;;;;;7.38;4.00;;;;;;;44.57;12.99;99995.72;5462424;26;20010;-70
2024/04/11 07:51:24;;;;;;;9.18;4.20;;;;;;;45.02;12.39;99988.94;5454617;26;20009;-72
2024/04/11 07:53:50;;;;;;;7.50;3.63;;;;;;;45.53;12.41;100008.50;5438941;26;20075;-70
2024/04/11 07:56:20;;;;;;;15.20;4.18;;;;;;;45.62;12.04;99997.13;5464736;26;20500;-70
2024/04/11 07:58:48;;;;;;;25.40;4.43;;;;;;;45.30;11.77;99995.63;5461890;26;20333;-70
2024/04/11 08:01:22;;;;;;;14.13;4.50;;;;;;;45.10;11.45;100004.19;5481424;26;20417;-69
2024/04/11 08:03:49;;;;;;;10.98;4.32;;;;;;;45.42;11.58;100001.94;5397301;26;20007;-71
2024/04/11 08:06:16;;;;;;;8.27;4.10;;;;;;;45.47;10.91;99997.63;5420604;26;20002;-70
2024/04/11 08:08:43;;;;;;;10.70;4.45;;;;;;;45.54;11.06;100007.44;5423045;26;20030;-71
2024/04/11 08:11:11;;;;;;;13.10;4.25;;;;;;;44.78;11.27;100015.44;5459317;26;20015;-69
2024/04/11 08:13:37;;;;;;;9.52;4.30;;;;;;;43.80;12.11;100013.56;5426020;26;19994;-70
2024/04/11 08:16:09;;;;;;;17.75;4.13;;;;;;;43.12;12.14;100021.56;5430577;26;20351;-71
2024/04/11 08:18:35;;;;;;;13.10;3.72;;;;;;;42.23;12.08;100029.66;5395229;26;20067;-70
2024/04/11 08:21:07;;;;;;;10.68;3.70;;;;;;;42.08;12.46;100027.19;5460002;26;20030;-70
2024/04/11 08:23:36;;;;;;;12.07;3.90;;;;;;;42.32;12.16;100006.50;5463819;26;19994;-70
2024/04/11 08:26:02;;;;;;;8.18;4.30;;;;;;;41.95;12.68;100014.41;5460878;26;20047;-69
2024/04/11 08:28:28;;;;;;;12.25;4.20;;;;;;;42.10;12.71;100004.06;5460443;26;20006;-70
2024/04/11 08:30:55;;;;;;;6.57;3.45;;;;;;;41.91;12.22;100011.25;5463442;26;20021;-70
2024/04/11 08:33:21;;;;;;;7.45;3.35;;;;;;;41.80;12.45;100025.59;5467058;26;19998;-71
2024/04/11 08:35:47;;;;;;;20.30;3.42;;;;;;;41.21;12.17;100034.47;5463747;26;20010;-72
2024/04/11 08:38:15;;;;;;;10.02;2.70;;;;;;;41.15;12.36;100024.38;5436854;26;20096;-73
2024/04/11 08:40:44;;;;;;;9.77;3.47;;;;;;;40.75;11.52;100038.78;5434644;26;20010;-71
2024/04/11 08:43:15;;;;;;;5.35;2.08;;;;;;;39.55;11.41;100031.69;5393523;26;20042;-72
2024/04/11 08:45:42;;;;;;;5.93;2.20;;;;;;;39.15;12.61;100037.63;5434658;26;19998;-69
2024/04/11 08:48:12;;;;;;;6.22;2.47;;;;;;;39.22;12.63;100015.91;5424139;26;20034;-73
2024/04/11 08:50:43;;;;;;;9.80;2.30;;;;;;;39.24;11.99;100049.22;5371138;26;20177;-70
2024/04/11 08:53:10;;;;;;;6.90;2.03;;;;;;;39.33;11.83;100049.94;5361700;26;20015;-73
2024/04/11 08:55:37;;;;;;;4.22;2.05;;;;;;;38.76;12.81;100038.91;5398136;26;20362;-69
2024/04/11 08:58:05;;;;;;;6.47;2.60;;;;;;;37.83;13.08;100061.97;5335941;26;20030;-72
2024/04/11 09:00:34;;;;;;;9.57;2.97;;;;;;;36.42;13.47;100043.13;5399383;26;20010;-69
2024/04/11 09:03:00;;;;;;;4.85;2.58;;;;;;;35.74;14.44;100058.94;5339332;26;19999;-70
2024/04/11 09:05:27;;;;;;;7.30;2.90;;;;;;;35.02;14.74;100060.44;5428536;26;20003;-71
2024/04/11 09:07:53;;;;;;;8.43;2.42;;;;;;;34.53;15.07;100045.78;5429348;26;20007;-70
2024/04/11 09:10:20;;;;;;;7.80;2.75;;;;;;;34.08;15.09;100052.34;5397044;26;20079;-69
2024/04/11 09:12:47;;;;;;;6.50;2.60;;;;;;;33.76;16.19;100056.50;5396294;26;20038;-71
2024/04/11 09:15:18;;;;;;;6.97;2.58;;;;;;;33.69;16.19;100041.94;5368914;26;20002;-72
2024/04/11 09:17:45;;;;;;;9.23;2.83;;;;;;;33.52;16.00;100049.91;5369453;26;22204;-70
2024/04/11 09:20:13;;;;;;;6.82;2.60;;;;;;;33.58;16.42;100037.66;5388141;26;20076;-70
2024/04/11 09:22:50;;;;;;;6.70;2.47;;;;;;;33.65;16.33;100076.47;5369592;26;20088;-69
2024/04/11 09:25:18;;;;;;;8.60;2.72;;;;;;;33.57;17.18;100077.28;5388431;26;20520;-70
2024/04/11 09:27:50;;;;;;;8.50;2.80;;;;;;;33.55;17.16;100079.28;5368608;26;20034;-71
2024/04/11 09:30:20;;;;;;;8.63;2.90;;;;;;;33.47;16.95;100074.66;5334275;26;20003;-71
2024/04/11 09:32:54;;;;;;;4.60;2.53;;;;;;;32.82;16.63;100039.81;5395566;26;20082;-71
2024/04/11 09:35:23;;;;;;;6.43;2.70;;;;;;;32.56;17.80;100073.72;5392856;26;20010;-70
2024/04/11 09:37:54;;;;;;;9.38;2.83;;;;;;;31.94;17.89;100057.22;5333824;26;20011;-70
2024/04/11 09:40:26;;;;;;;;;;;;;;;32.01;18.74;100087.94;5370182;26;19995;-71
2024/04/11 09:43:03;;;;;;;3.47;2.58;;;;;;;32.04;18.09;100043.75;5366293;26;19953;-71
2024/04/11 09:45:41;;;;;;;10.13;2.80;;;;;;;32.44;17.91;100067.69;5426420;26;20003;-72
2024/04/11 09:48:12;;;;;;;5.55;2.42;;;;;;;32.05;18.49;100045.44;5357338;26;20326;-71
2024/04/11 09:50:40;;;;;;;9.75;2.13;;;;;;;31.83;18.13;100053.75;5418200;26;20017;-73
2024/04/11 09:53:10;;;;;;;7.05;2.10;;;;;;;31.99;17.63;100063.91;5334979;26;20049;-71
2024/04/11 09:55:36;;;;;;;11.68;2.38;;;;;;;32.22;17.30;100087.72;5396468;26;20321;-70
2024/04/11 09:58:06;;;;;;;4.43;1.90;;;;;;;32.21;17.78;100087.88;5368865;26;20318;-72
2024/04/11 10:00:48;;;;;;;7.00;2.92;;;;;;;32.35;17.77;100082.03;5425321;26;19999;-69
2024/04/11 10:03:19;;;;;;;6.85;2.22;;;;;;;32.42;16.90;100090.38;5396247;26;20004;-70
2024/04/11 10:05:46;;;;;;;6.32;2.45;;;;;;;32.11;17.03;100094.13;5397862;26;21352;-69
2024/04/11 10:08:27;;;;;;;6.95;2.67;;;;;;;31.98;17.32;100101.69;5427299;26;19999;-70
2024/04/11 10:10:54;;;;;;;3.78;1.80;;;;;;;31.89;17.93;100097.19;5332992;26;20011;-71
2024/04/11 10:13:22;;;;;;;4.85;1.70;;;;;;;31.95;16.80;100083.13;5396601;26;20043;-69
2024/04/11 10:16:03;;;;;;;5.70;2.22;;;;;;;31.74;16.22;100091.41;5361726;26;20334;-71
2024/04/11 10:18:41;;;;;;;2.63;2.03;;;;;;;31.58;16.09;100116.16;5399537;26;20003;-70
2024/04/11 10:21:11;;;;;;;6.47;1.58;;;;;;;31.57;15.39;100101.03;5385955;26;20097;-72
2024/04/11 10:23:38;;;;;;;7.45;2.20;;;;;;;31.50;16.05;100115.03;5398643;26;20013;-72
2024/04/11 10:26:14;;;;;;;5.53;2.13;;;;;;;30.99;15.65;100116.13;5364402;26;20041;-72
2024/04/11 10:28:41;;;;;;;8.75;2.15;;;;;;;30.73;16.89;100127.34;5368074;26;20006;-71
2024/04/11 10:31:23;;;;;;;3.90;1.73;;;;;;;30.38;17.00;100120.53;5393862;26;20008;-70
2024/04/11 10:34:10;;;;;;;8.15;2.08;;;;;;;30.25;17.27;100131.50;5430814;26;20010;-71
2024/04/11 10:36:42;;;;;;;7.07;2.08;;;;;;;29.74;17.84;100134.81;5395280;26;20074;-70
2024/04/11 10:39:09;;;;;;;6.22;1.95;;;;;;;29.42;17.34;100114.28;5368046;26;20075;-70
2024/04/11 10:41:37;;;;;;;19.45;2.03;;;;;;;28.81;17.09;100141.56;5396066;26;20010;-70
2024/04/11 10:44:06;;;;;;;6.50;2.00;;;;;;;27.82;17.42;100117.94;5429106;26;20009;-71
2024/04/11 10:46:33;;;;;;;10.23;1.92;;;;;;;27.33;17.85;100151.88;5386645;26;20015;-71
2024/04/11 10:49:12;;;;;;;6.35;1.45;;;;;;;26.98;18.05;100149.94;5417073;26;20000;-70
2024/04/11 10:51:40;;;;;;;6.53;2.15;;;;;;;26.91;17.42;100133.53;5431441;26;19998;-70
2024/04/11 10:54:10;;;;;;;7.10;1.83;;;;;;;26.84;17.86;100102.91;5426432;26;19998;-71
2024/04/11 10:56:44;;;;;;;7.95;1.83;;;;;;;26.88;17.48;100112.38;5454418;26;19994;-71
2024/04/11 10:59:26;;;;;;;7.40;1.70;;;;;;;26.69;17.83;100108.34;5466059;26;20013;-70
2024/04/11 11:02:02;;;;;;;10.43;1.70;;;;;;;26.81;18.05;100153.84;5432360;26;20059;-70
2024/04/11 11:04:32;;;;;;;8.35;2.20;;;;;;;26.60;18.89;100133.88;5460406;26;20569;-69
2024/04/11 11:06:59;;;;;;;5.88;3.40;;;;;;;26.60;18.70;100133.88;5430360;26;20333;-70
2024/04/11 11:09:29;;;;;;;17.33;8.73;;;;;;;26.83;19.42;100147.44;5403641;26;20024;-72
2024/04/11 11:11:56;;;;;;;5.32;4.60;;;;;;;26.52;19.62;100132.72;5463254;26;20006;-70
2024/04/11 11:14:28;;;;;;;7.97;3.47;;;;;;;26.05;19.54;100095.03;5461661;26;20097;-70
2024/04/11 11:17:01;;;;;;;8.95;3.65;;;;;;;25.94;20.21;100098.44;5429693;26;19998;-70
2024/04/11 11:19:30;;;;;;;5.60;2.83;;;;;;;25.99;20.40;100152.31;5403340;26;20013;-72
2024/04/11 11:21:59;;;;;;;5.30;2.05;;;;;;;25.71;20.92;100160.34;5464638;26;19998;-72
2024/04/11 11:24:28;;;;;;;7.30;4.00;;;;;;;25.51;21.58;100153.69;5461085;26;20007;-70
2024/04/11 11:26:59;;;;;;;12.82;5.10;;;;;;;25.36;21.62;100152.88;5394093;26;20010;-70
2024/04/11 11:29:27;;;;;;;6.70;2.50;;;;;;;25.39;21.90;100175.75;5423607;26;20009;-70
2024/04/11 11:32:01;;;;;;;4.75;2.10;;;;;;;25.33;21.81;100182.34;5479665;26;20497;-70
2024/04/11 11:34:30;;;;;;;6.90;3.05;;;;;;;24.96;22.17;100158.06;5458535;26;20025;-70